sensor_id;sensor_type;location;lat;lon;timestamp;pressure;altitude;pressure_sealevel;temperature;humidity
47104;BME280;32853;52.164;5.400;2022-08-21T00:01:05;101581.44;;;17.95;100.00
47104;BME280;32853;52.164;5.400;2022-08-21T00:03:32;101653.72;;;18.42;100.00
47104;BME280;32853;52.164;5.400;2022-08-21T00:05:58;101476.97;;;17.27;100.00
47104;BME280;32853;52.164;5.400;2022-08-21T00:08:23;101590.03;;;17.85;100.00
47104;BME280;32853;52.164;5.400;2022-08-21T00:10:49;101655.84;;;18.21;100.00
47104;BME280;32853;52.164;5.400;2022-08-21T00:13:16;101497.22;;;17.12;100.00
47104;BME280;32853;52.164;5.400;2022-08-21T00:15:43;101481.69;;;17.06;100.00
47104;BME280;32853;52.164;5.400;2022-08-21T00:18:09;101542.78;;;17.47;100.00
47104;BME280;32853;52.164;5.400;2022-08-21T00:20:37;101594.72;;;17.80;100.00
47104;BME280;32853;52.164;5.400;2022-08-21T00:23:03;101662.34;;;18.15;100.00
47104;BME280;32853;52.164;5.400;2022-08-21T00:25:28;101556.44;;;17.55;100.00
47104;BME280;32853;52.164;5.400;2022-08-21T00:27:55;101650.31;;;18.10;100.00
47104;BME280;32853;52.164;5.400;2022-08-21T00:30:26;101657.34;;;17.95;100.00
47104;BME280;32853;52.164;5.400;2022-08-21T00:32:53;101468.75;;;17.01;100.00
47104;BME280;32853;52.164;5.400;2022-08-21T00:35:22;101585.63;;;17.69;100.00
47104;BME280;32853;52.164;5.400;2022-08-21T00:37:48;101644.28;;;17.92;100.00
47104;BME280;32853;52.164;5.400;2022-08-21T00:40:18;101637.31;;;17.91;100.00
47104;BME280;32853;52.164;5.400;2022-08-21T00:42:44;101479.69;;;16.79;100.00
47104;BME280;32853;52.164;5.400;2022-08-21T00:45:10;101511.56;;;17.08;100.00
47104;BME280;32853;52.164;5.400;2022-08-21T00:47:36;101526.03;;;17.17;100.00
47104;BME280;32853;52.164;5.400;2022-08-21T00:50:04;101641.41;;;17.81;100.00
47104;BME280;32853;52.164;5.400;2022-08-21T00:52:34;101594.06;;;17.45;100.00
47104;BME280;32853;52.164;5.400;2022-08-21T00:55:05;101610.53;;;17.50;100.00
47104;BME280;32853;52.164;5.400;2022-08-21T00:57:36;101572.50;;;17.21;100.00
47104;BME280;32853;52.164;5.400;2022-08-21T01:00:07;101652.59;;;17.54;100.00
47104;BME280;32853;52.164;5.400;2022-08-21T01:02:33;101655.66;;;17.62;100.00
47104;BME280;32853;52.164;5.400;2022-08-21T01:04:59;101442.16;;;16.41;100.00
47104;BME280;32853;52.164;5.400;2022-08-21T01:07:24;101607.56;;;17.24;100.00
47104;BME280;32853;52.164;5.400;2022-08-21T01:09:50;101580.50;;;17.03;100.00
47104;BME280;32853;52.164;5.400;2022-08-21T01:12:16;101541.19;;;16.81;100.00
47104;BME280;32853;52.164;5.400;2022-08-21T01:14:42;101453.44;;;16.27;100.00
47104;BME280;32853;52.164;5.400;2022-08-21T01:17:09;101569.94;;;17.03;100.00
47104;BME280;32853;52.164;5.400;2022-08-21T01:19:36;101635.72;;;17.41;100.00
47104;BME280;32853;52.164;5.400;2022-08-21T01:22:01;101629.13;;;17.48;100.00
47104;BME280;32853;52.164;5.400;2022-08-21T01:24:27;101598.78;;;17.24;100.00
47104;BME280;32853;52.164;5.400;2022-08-21T01:27:10;101640.38;;;17.36;100.00
47104;BME280;32853;52.164;5.400;2022-08-21T01:30:12;101641.16;;;17.38;100.00
47104;BME280;32853;52.164;5.400;2022-08-21T01:32:28;101637.50;;;17.40;100.00
47104;BME280;32853;52.164;5.400;2022-08-21T01:34:54;101526.19;;;16.82;100.00
47104;BME280;32853;52.164;5.400;2022-08-21T01:37:20;101566.22;;;17.07;100.00
47104;BME280;32853;52.164;5.400;2022-08-21T01:39:46;101645.50;;;17.39;100.00
47104;BME280;32853;52.164;5.400;2022-08-21T01:42:26;101576.00;;;17.05;100.00
47104;BME280;32853;52.164;5.400;2022-08-21T01:44:51;101645.69;;;17.36;100.00
47104;BME280;32853;52.164;5.400;2022-08-21T01:47:17;101625.66;;;17.32;100.00
47104;BME280;32853;52.164;5.400;2022-08-21T01:49:44;101454.63;;;16.22;100.00
47104;BME280;32853;52.164;5.400;2022-08-21T01:52:11;101621.19;;;17.17;100.00
47104;BME280;32853;52.164;5.400;2022-08-21T01:54:50;101628.25;;;17.16;100.00
47104;BME280;32853;52.164;5.400;2022-08-21T01:57:25;101621.97;;;17.19;100.00
47104;BME280;32853;52.164;5.400;2022-08-21T01:59:55;101553.97;;;16.73;100.00
47104;BME280;32853;52.164;5.400;2022-08-21T02:02:22;101577.78;;;16.89;100.00
47104;BME280;32853;52.164;5.400;2022-08-21T02:04:55;101587.84;;;16.98;100.00
47104;BME280;32853;52.164;5.400;2022-08-21T02:07:21;101595.34;;;16.90;100.00
47104;BME280;32853;52.164;5.400;2022-08-21T02:09:46;101620.16;;;17.03;100.00
47104;BME280;32853;52.164;5.400;2022-08-21T02:12:18;101619.22;;;17.04;100.00
47104;BME280;32853;52.164;5.400;2022-08-21T02:14:43;101572.63;;;16.70;100.00
47104;BME280;32853;52.164;5.400;2022-08-21T02:17:08;101550.81;;;16.49;100.00
47104;BME280;32853;52.164;5.400;2022-08-21T02:19:34;101553.16;;;16.55;100.00
47104;BME280;32853;52.164;5.400;2022-08-21T02:22:01;101554.50;;;16.63;100.00
47104;BME280;32853;52.164;5.400;2022-08-21T02:24:30;101590.38;;;16.84;100.00
47104;BME280;32853;52.164;5.400;2022-08-21T02:26:56;101611.00;;;16.93;100.00
47104;BME280;32853;52.164;5.400;2022-08-21T02:29:21;101548.81;;;16.54;100.00
47104;BME280;32853;52.164;5.400;2022-08-21T02:31:47;101537.88;;;16.45;100.00
47104;BME280;32853;52.164;5.400;2022-08-21T02:34:12;101398.41;;;15.71;100.00
47104;BME280;32853;52.164;5.400;2022-08-21T02:36:38;101495.44;;;16.32;100.00
47104;BME280;32853;52.164;5.400;2022-08-21T02:39:03;101494.59;;;16.32;100.00
47104;BME280;32853;52.164;5.400;2022-08-21T02:41:29;101611.44;;;16.86;100.00
47104;BME280;32853;52.164;5.400;2022-08-21T02:43:54;101500.44;;;16.21;100.00
47104;BME280;32853;52.164;5.400;2022-08-21T02:46:20;101584.81;;;16.73;100.00
47104;BME280;32853;52.164;5.400;2022-08-21T02:48:46;101604.88;;;16.77;100.00
47104;BME280;32853;52.164;5.400;2022-08-21T02:51:14;101467.94;;;16.03;100.00
47104;BME280;32853;52.164;5.400;2022-08-21T02:53:41;101473.00;;;15.90;100.00
47104;BME280;32853;52.164;5.400;2022-08-21T02:56:10;101581.72;;;16.65;100.00
47104;BME280;32853;52.164;5.400;2022-08-21T02:58:38;101526.69;;;16.40;100.00
47104;BME280;32853;52.164;5.400;2022-08-21T03:01:06;101588.84;;;16.63;100.00
47104;BME280;32853;52.164;5.400;2022-08-21T03:03:35;101589.66;;;16.65;100.00
47104;BME280;32853;52.164;5.400;2022-08-21T03:06:00;101467.66;;;15.92;100.00
47104;BME280;32853;52.164;5.400;2022-08-21T03:08:27;101582.03;;;16.59;100.00
47104;BME280;32853;52.164;5.400;2022-08-21T03:10:54;101508.66;;;16.15;100.00
47104;BME280;32853;52.164;5.400;2022-08-21T03:13:21;101592.75;;;16.55;100.00
47104;BME280;32853;52.164;5.400;2022-08-21T03:15:59;101542.53;;;16.40;100.00
47104;BME280;32853;52.164;5.400;2022-08-21T03:18:24;101582.03;;;16.59;100.00
47104;BME280;32853;52.164;5.400;2022-08-21T03:20:54;101593.06;;;16.67;100.00
47104;BME280;32853;52.164;5.400;2022-08-21T03:23:19;101568.81;;;16.59;100.00
47104;BME280;32853;52.164;5.400;2022-08-21T03:25:48;101480.66;;;16.12;100.00
47104;BME280;32853;52.164;5.400;2022-08-21T03:28:18;101544.50;;;16.36;100.00
47104;BME280;32853;52.164;5.400;2022-08-21T03:30:46;101582.28;;;16.54;100.00
47104;BME280;32853;52.164;5.400;2022-08-21T03:33:12;101541.56;;;16.25;100.00
47104;BME280;32853;52.164;5.400;2022-08-21T03:35:38;101573.66;;;16.50;100.00
47104;BME280;32853;52.164;5.400;2022-08-21T03:38:04;101486.03;;;15.93;100.00
47104;BME280;32853;52.164;5.400;2022-08-21T03:40:31;101427.25;;;15.39;100.00
47104;BME280;32853;52.164;5.400;2022-08-21T03:42:58;101513.72;;;16.02;100.00
47104;BME280;32853;52.164;5.400;2022-08-21T03:45:24;101465.44;;;15.67;100.00
47104;BME280;32853;52.164;5.400;2022-08-21T03:47:58;101417.56;;;15.40;100.00
47104;BME280;32853;52.164;5.400;2022-08-21T03:50:25;101509.88;;;15.92;100.00
47104;BME280;32853;52.164;5.400;2022-08-21T03:52:51;101570.72;;;16.39;100.00
47104;BME280;32853;52.164;5.400;2022-08-21T03:55:16;101510.63;;;16.11;100.00
47104;BME280;32853;52.164;5.400;2022-08-21T03:57:42;101465.56;;;15.81;100.00
47104;BME280;32853;52.164;5.400;2022-08-21T04:00:08;101451.78;;;15.76;100.00
47104;BME280;32853;52.164;5.400;2022-08-21T04:02:38;101438.97;;;15.68;100.00
47104;BME280;32853;52.164;5.400;2022-08-21T04:05:04;101580.28;;;16.42;100.00
47104;BME280;32853;52.164;5.400;2022-08-21T04:07:30;101521.69;;;16.18;100.00
47104;BME280;32853;52.164;5.400;2022-08-21T04:09:56;101524.88;;;16.07;100.00
47104;BME280;32853;52.164;5.400;2022-08-21T04:12:27;101533.97;;;16.19;100.00
47104;BME280;32853;52.164;5.400;2022-08-21T04:15:13;101573.06;;;16.28;100.00
47104;BME280;32853;52.164;5.400;2022-08-21T04:17:52;101473.50;;;15.64;100.00
47104;BME280;32853;52.164;5.400;2022-08-21T04:20:18;101404.75;;;15.15;100.00
47104;BME280;32853;52.164;5.400;2022-08-21T04:22:45;101532.16;;;15.86;100.00
47104;BME280;32853;52.164;5.400;2022-08-21T04:25:12;101595.59;;;16.18;100.00
47104;BME280;32853;52.164;5.400;2022-08-21T04:27:38;101565.28;;;16.09;100.00
47104;BME280;32853;52.164;5.400;2022-08-21T04:30:05;101499.63;;;15.68;100.00
47104;BME280;32853;52.164;5.400;2022-08-21T04:32:31;101534.84;;;15.67;100.00
47104;BME280;32853;52.164;5.400;2022-08-21T04:35:01;101520.34;;;15.76;100.00
47104;BME280;32853;52.164;5.400;2022-08-21T04:37:27;101537.88;;;15.77;100.00
47104;BME280;32853;52.164;5.400;2022-08-21T04:40:05;101545.63;;;15.80;100.00
47104;BME280;32853;52.164;5.400;2022-08-21T04:43:04;101481.91;;;15.36;100.00
47104;BME280;32853;52.164;5.400;2022-08-21T04:45:33;101412.19;;;15.07;100.00
47104;BME280;32853;52.164;5.400;2022-08-21T04:48:07;101506.13;;;15.61;100.00
47104;BME280;32853;52.164;5.400;2022-08-21T04:56:06;101541.91;;;15.67;100.00
47104;BME280;32853;52.164;5.400;2022-08-21T04:58:34;101470.19;;;15.24;100.00
47104;BME280;32853;52.164;5.400;2022-08-21T05:01:01;101583.31;;;15.82;100.00
47104;BME280;32853;52.164;5.400;2022-08-21T05:03:28;101570.13;;;15.65;100.00
47104;BME280;32853;52.164;5.400;2022-08-21T05:05:57;101547.97;;;15.50;100.00
47104;BME280;32853;52.164;5.400;2022-08-21T05:08:24;101589.31;;;15.86;100.00
47104;BME280;32853;52.164;5.400;2022-08-21T05:10:51;101441.16;;;15.07;100.00
47104;BME280;32853;52.164;5.400;2022-08-21T05:13:17;101591.56;;;15.93;100.00
47104;BME280;32853;52.164;5.400;2022-08-21T05:15:44;101477.41;;;15.21;100.00
47104;BME280;32853;52.164;5.400;2022-08-21T05:18:10;101518.50;;;15.42;100.00
47104;BME280;32853;52.164;5.400;2022-08-21T05:20:36;101413.97;;;14.89;100.00
47104;BME280;32853;52.164;5.400;2022-08-21T05:23:07;101596.69;;;15.79;100.00
47104;BME280;32853;52.164;5.400;2022-08-21T05:25:33;101610.44;;;15.86;100.00
47104;BME280;32853;52.164;5.400;2022-08-21T05:28:01;101618.47;;;15.83;100.00
47104;BME280;32853;52.164;5.400;2022-08-21T05:30:27;101591.44;;;15.96;100.00
47104;BME280;32853;52.164;5.400;2022-08-21T05:33:00;101603.97;;;15.91;100.00
47104;BME280;32853;52.164;5.400;2022-08-21T05:35:27;101608.25;;;15.94;100.00
47104;BME280;32853;52.164;5.400;2022-08-21T05:37:53;101581.31;;;15.70;100.00
47104;BME280;32853;52.164;5.400;2022-08-21T05:40:18;101545.69;;;15.61;100.00
47104;BME280;32853;52.164;5.400;2022-08-21T05:42:45;101526.25;;;15.45;100.00
47104;BME280;32853;52.164;5.400;2022-08-21T05:45:10;101603.34;;;16.04;100.00
47104;BME280;32853;52.164;5.400;2022-08-21T05:47:35;101607.78;;;16.03;100.00
47104;BME280;32853;52.164;5.400;2022-08-21T05:50:01;101599.66;;;16.08;100.00
47104;BME280;32853;52.164;5.400;2022-08-21T05:52:29;101487.75;;;15.60;100.00
47104;BME280;32853;52.164;5.400;2022-08-21T05:54:54;101572.88;;;15.98;100.00
47104;BME280;32853;52.164;5.400;2022-08-21T05:57:37;101598.41;;;16.32;100.00
47104;BME280;32853;52.164;5.400;2022-08-21T06:00:15;101600.94;;;16.34;100.00
47104;BME280;32853;52.164;5.400;2022-08-21T06:02:43;101544.84;;;16.13;100.00
47104;BME280;32853;52.164;5.400;2022-08-21T06:05:09;101560.75;;;16.11;100.00
47104;BME280;32853;52.164;5.400;2022-08-21T06:07:34;101603.41;;;16.37;100.00
47104;BME280;32853;52.164;5.400;2022-08-21T06:10:00;101492.78;;;15.82;100.00
47104;BME280;32853;52.164;5.400;2022-08-21T06:12:25;101594.94;;;16.47;100.00
47104;BME280;32853;52.164;5.400;2022-08-21T06:14:51;101556.00;;;16.35;100.00
47104;BME280;32853;52.164;5.400;2022-08-21T06:17:17;101595.22;;;16.59;100.00
47104;BME280;32853;52.164;5.400;2022-08-21T06:19:45;101580.78;;;16.66;100.00
47104;BME280;32853;52.164;5.400;2022-08-21T06:22:10;101566.00;;;16.62;100.00
47104;BME280;32853;52.164;5.400;2022-08-21T06:24:37;101593.94;;;16.83;100.00
47104;BME280;32853;52.164;5.400;2022-08-21T06:27:06;101559.19;;;16.75;100.00
47104;BME280;32853;52.164;5.400;2022-08-21T06:29:33;101574.59;;;16.82;100.00
47104;BME280;32853;52.164;5.400;2022-08-21T06:32:00;101596.28;;;17.05;100.00
47104;BME280;32853;52.164;5.400;2022-08-21T06:34:26;101552.03;;;16.77;100.00
47104;BME280;32853;52.164;5.400;2022-08-21T06:36:52;101601.84;;;17.16;100.00
47104;BME280;32853;52.164;5.400;2022-08-21T06:39:18;101535.75;;;16.84;100.00
47104;BME280;32853;52.164;5.400;2022-08-21T06:41:43;101585.53;;;17.39;100.00
47104;BME280;32853;52.164;5.400;2022-08-21T06:44:16;101498.34;;;16.92;100.00
47104;BME280;32853;52.164;5.400;2022-08-21T06:46:42;101591.75;;;17.54;100.00
47104;BME280;32853;52.164;5.400;2022-08-21T06:49:09;101592.59;;;17.70;100.00
47104;BME280;32853;52.164;5.400;2022-08-21T06:51:34;101507.19;;;17.23;100.00
47104;BME280;32853;52.164;5.400;2022-08-21T06:54:00;101542.19;;;17.74;100.00
47104;BME280;32853;52.164;5.400;2022-08-21T06:56:25;101601.66;;;18.26;100.00
47104;BME280;32853;52.164;5.400;2022-08-21T06:58:50;101553.56;;;17.90;100.00
47104;BME280;32853;52.164;5.400;2022-08-21T07:01:24;101490.19;;;17.73;100.00
47104;BME280;32853;52.164;5.400;2022-08-21T07:03:49;101600.91;;;18.39;100.00
47104;BME280;32853;52.164;5.400;2022-08-21T07:06:15;101573.97;;;18.32;100.00
47104;BME280;32853;52.164;5.400;2022-08-21T07:08:40;101496.28;;;17.89;100.00
47104;BME280;32853;52.164;5.400;2022-08-21T07:11:14;101602.78;;;18.67;100.00
47104;BME280;32853;52.164;5.400;2022-08-21T07:13:42;101549.19;;;18.47;100.00
47104;BME280;32853;52.164;5.400;2022-08-21T07:16:07;101541.91;;;18.51;100.00
47104;BME280;32853;52.164;5.400;2022-08-21T07:18:33;101494.72;;;18.43;100.00
47104;BME280;32853;52.164;5.400;2022-08-21T07:21:01;101434.56;;;18.03;100.00
47104;BME280;32853;52.164;5.400;2022-08-21T07:23:32;101564.94;;;18.79;100.00
47104;BME280;32853;52.164;5.400;2022-08-21T07:25:59;101598.88;;;19.01;100.00
47104;BME280;32853;52.164;5.400;2022-08-21T07:28:26;101503.81;;;18.68;100.00
47104;BME280;32853;52.164;5.400;2022-08-21T07:30:54;101569.03;;;19.11;100.00
47104;BME280;32853;52.164;5.400;2022-08-21T07:33:20;101582.50;;;19.35;100.00
47104;BME280;32853;52.164;5.400;2022-08-21T07:35:45;101589.09;;;19.57;100.00
47104;BME280;32853;52.164;5.400;2022-08-21T07:38:10;101571.00;;;19.49;100.00
47104;BME280;32853;52.164;5.400;2022-08-21T07:40:36;101586.34;;;19.85;100.00
47104;BME280;32853;52.164;5.400;2022-08-21T07:43:02;101530.84;;;19.55;100.00
47104;BME280;32853;52.164;5.400;2022-08-21T07:45:28;101463.59;;;19.02;100.00
47104;BME280;32853;52.164;5.400;2022-08-21T07:47:53;101594.50;;;19.82;100.00
47104;BME280;32853;52.164;5.400;2022-08-21T07:50:19;101596.69;;;20.28;100.00
47104;BME280;32853;52.164;5.400;2022-08-21T07:52:47;101487.91;;;19.49;100.00
47104;BME280;32853;52.164;5.400;2022-08-21T07:55:20;101595.53;;;20.32;100.00
47104;BME280;32853;52.164;5.400;2022-08-21T07:57:46;101592.38;;;20.40;100.00
47104;BME280;32853;52.164;5.400;2022-08-21T08:00:15;101573.03;;;20.50;100.00
47104;BME280;32853;52.164;5.400;2022-08-21T08:02:43;101583.25;;;20.56;100.00
47104;BME280;32853;52.164;5.400;2022-08-21T08:05:13;101551.13;;;20.34;100.00
47104;BME280;32853;52.164;5.400;2022-08-21T08:07:42;101522.22;;;20.17;100.00
47104;BME280;32853;52.164;5.400;2022-08-21T08:10:08;101581.97;;;20.75;100.00
47104;BME280;32853;52.164;5.400;2022-08-21T08:12:35;101537.94;;;20.71;100.00
47104;BME280;32853;52.164;5.400;2022-08-21T08:15:01;101515.69;;;20.84;100.00
47104;BME280;32853;52.164;5.400;2022-08-21T08:17:27;101583.34;;;21.30;100.00
47104;BME280;32853;52.164;5.400;2022-08-21T08:19:53;101455.91;;;20.53;100.00
47104;BME280;32853;52.164;5.400;2022-08-21T08:22:22;101569.69;;;21.34;100.00
47104;BME280;32853;52.164;5.400;2022-08-21T08:24:52;101436.66;;;20.63;100.00
47104;BME280;32853;52.164;5.400;2022-08-21T08:27:18;101503.44;;;21.18;100.00
47104;BME280;32853;52.164;5.400;2022-08-21T08:29:45;101499.47;;;21.24;100.00
47104;BME280;32853;52.164;5.400;2022-08-21T08:32:10;101541.03;;;21.62;100.00
47104;BME280;32853;52.164;5.400;2022-08-21T08:34:37;101444.81;;;21.20;100.00
47104;BME280;32853;52.164;5.400;2022-08-21T08:37:04;101485.91;;;21.40;100.00
47104;BME280;32853;52.164;5.400;2022-08-21T08:39:30;101489.25;;;21.31;100.00
47104;BME280;32853;52.164;5.400;2022-08-21T08:42:07;101446.31;;;21.11;100.00
47104;BME280;32853;52.164;5.400;2022-08-21T08:44:36;101548.44;;;21.69;100.00
47104;BME280;32853;52.164;5.400;2022-08-21T08:47:02;101554.34;;;21.97;100.00
47104;BME280;32853;52.164;5.400;2022-08-21T08:49:40;101576.91;;;22.15;100.00
47104;BME280;32853;52.164;5.400;2022-08-21T08:52:15;101418.53;;;21.39;100.00
47104;BME280;32853;52.164;5.400;2022-08-21T08:55:14;101485.91;;;21.86;100.00
47104;BME280;32853;52.164;5.400;2022-08-21T08:57:44;101528.75;;;22.18;100.00
47104;BME280;32853;52.164;5.400;2022-08-21T09:00:13;101523.66;;;22.38;100.00
47104;BME280;32853;52.164;5.400;2022-08-21T09:02:41;101502.31;;;22.26;100.00
47104;BME280;32853;52.164;5.400;2022-08-21T09:05:27;101579.75;;;22.70;100.00
47104;BME280;32853;52.164;5.400;2022-08-21T09:10:53;101571.41;;;22.74;100.00
47104;BME280;32853;52.164;5.400;2022-08-21T09:16:25;101474.97;;;22.13;100.00
47104;BME280;32853;52.164;5.400;2022-08-21T09:21:43;101564.16;;;22.54;100.00
47104;BME280;32853;52.164;5.400;2022-08-21T09:24:35;101558.94;;;22.52;100.00
47104;BME280;32853;52.164;5.400;2022-08-21T09:27:13;101556.63;;;22.70;100.00
47104;BME280;32853;52.164;5.400;2022-08-21T09:29:41;101548.28;;;22.75;100.00
47104;BME280;32853;52.164;5.400;2022-08-21T09:32:28;101543.81;;;22.86;100.00
47104;BME280;32853;52.164;5.400;2022-08-21T09:37:30;101561.59;;;22.97;100.00
47104;BME280;32853;52.164;5.400;2022-08-21T09:39:57;101539.19;;;22.66;100.00
47104;BME280;32853;52.164;5.400;2022-08-21T09:42:28;101560.97;;;23.05;100.00
47104;BME280;32853;52.164;5.400;2022-08-21T09:45:16;101556.72;;;23.02;100.00
47104;BME280;32853;52.164;5.400;2022-08-21T09:47:42;101559.25;;;23.15;100.00
47104;BME280;32853;52.164;5.400;2022-08-21T09:50:19;101578.47;;;23.52;100.00
47104;BME280;32853;52.164;5.400;2022-08-21T09:52:51;101575.38;;;23.57;100.00
47104;BME280;32853;52.164;5.400;2022-08-21T09:55:57;101567.47;;;23.34;100.00
47104;BME280;32853;52.164;5.400;2022-08-21T09:58:46;101577.97;;;23.47;100.00
47104;BME280;32853;52.164;5.400;2022-08-21T10:01:22;101523.63;;;23.37;100.00
47104;BME280;32853;52.164;5.400;2022-08-21T10:03:48;101542.63;;;23.55;100.00
47104;BME280;32853;52.164;5.400;2022-08-21T10:06:24;101559.03;;;23.82;100.00
47104;BME280;32853;52.164;5.400;2022-08-21T10:09:13;101571.03;;;23.88;100.00
47104;BME280;32853;52.164;5.400;2022-08-21T10:11:44;101537.34;;;23.75;100.00
47104;BME280;32853;52.164;5.400;2022-08-21T10:14:56;101552.66;;;23.94;100.00
47104;BME280;32853;52.164;5.400;2022-08-21T10:20:37;101553.38;;;24.17;100.00
47104;BME280;32853;52.164;5.400;2022-08-21T10:23:27;101468.97;;;23.63;100.00
47104;BME280;32853;52.164;5.400;2022-08-21T10:29:38;101572.03;;;24.08;100.00
47104;BME280;32853;52.164;5.400;2022-08-21T10:32:17;101562.06;;;24.30;100.00
47104;BME280;32853;52.164;5.400;2022-08-21T10:46:53;101493.16;;;23.71;100.00
47104;BME280;32853;52.164;5.400;2022-08-21T10:55:33;101424.25;;;23.65;100.00
47104;BME280;32853;52.164;5.400;2022-08-21T10:58:14;101527.50;;;24.48;100.00
47104;BME280;32853;52.164;5.400;2022-08-21T11:00:55;101473.22;;;24.27;100.00
47104;BME280;32853;52.164;5.400;2022-08-21T11:03:37;101533.47;;;24.52;100.00
47104;BME280;32853;52.164;5.400;2022-08-21T11:06:24;101527.09;;;24.43;100.00
47104;BME280;32853;52.164;5.400;2022-08-21T11:08:54;101498.00;;;24.29;100.00
47104;BME280;32853;52.164;5.400;2022-08-21T11:11:36;101477.38;;;24.31;100.00
47104;BME280;32853;52.164;5.400;2022-08-21T11:17:18;101523.69;;;24.81;100.00
47104;BME280;32853;52.164;5.400;2022-08-21T11:20:08;101507.50;;;24.73;100.00
47104;BME280;32853;52.164;5.400;2022-08-21T11:22:46;101526.91;;;25.06;100.00
47104;BME280;32853;52.164;5.400;2022-08-21T11:25:17;101521.13;;;25.10;100.00
47104;BME280;32853;52.164;5.400;2022-08-21T11:27:50;101426.06;;;24.56;100.00
47104;BME280;32853;52.164;5.400;2022-08-21T11:30:17;101483.56;;;24.81;100.00
47104;BME280;32853;52.164;5.400;2022-08-21T11:33:22;101527.09;;;24.93;100.00
47104;BME280;32853;52.164;5.400;2022-08-21T11:38:43;101505.03;;;24.60;100.00
47104;BME280;32853;52.164;5.400;2022-08-21T11:41:40;101523.28;;;24.76;100.00
47104;BME280;32853;52.164;5.400;2022-08-21T11:44:16;101527.09;;;24.83;100.00
47104;BME280;32853;52.164;5.400;2022-08-21T11:52:26;101539.78;;;24.91;100.00
47104;BME280;32853;52.164;5.400;2022-08-21T11:55:15;101552.16;;;24.92;100.00
47104;BME280;32853;52.164;5.400;2022-08-21T11:58:00;101546.56;;;24.95;100.00
47104;BME280;32853;52.164;5.400;2022-08-21T12:00:33;101507.84;;;24.59;100.00
47104;BME280;32853;52.164;5.400;2022-08-21T12:03:09;101514.78;;;24.71;100.00
47104;BME280;32853;52.164;5.400;2022-08-21T12:05:38;101541.31;;;24.93;100.00
47104;BME280;32853;52.164;5.400;2022-08-21T12:10:41;101496.66;;;24.75;100.00
47104;BME280;32853;52.164;5.400;2022-08-21T12:13:22;101548.94;;;24.88;100.00
47104;BME280;32853;52.164;5.400;2022-08-21T12:16:09;101548.94;;;24.88;100.00
47104;BME280;32853;52.164;5.400;2022-08-21T12:18:35;101541.63;;;25.00;100.00
47104;BME280;32853;52.164;5.400;2022-08-21T12:24:20;101499.94;;;24.98;100.00
47104;BME280;32853;52.164;5.400;2022-08-21T12:30:00;101530.72;;;25.81;100.00
47104;BME280;32853;52.164;5.400;2022-08-21T12:32:43;101534.38;;;25.99;96.40
47104;BME280;32853;52.164;5.400;2022-08-21T12:35:17;101514.22;;;25.95;85.62
47104;BME280;32853;52.164;5.400;2022-08-21T12:37:57;101473.50;;;25.53;87.60
47104;BME280;32853;52.164;5.400;2022-08-21T12:40:37;101464.63;;;25.62;87.08
47104;BME280;32853;52.164;5.400;2022-08-21T12:43:05;101533.63;;;26.16;87.69
47104;BME280;32853;52.164;5.400;2022-08-21T12:45:45;101545.94;;;26.09;86.26
47104;BME280;32853;52.164;5.400;2022-08-21T12:48:52;101544.53;;;26.05;88.05
47104;BME280;32853;52.164;5.400;2022-08-21T12:51:22;101501.84;;;25.74;83.67
47104;BME280;32853;52.164;5.400;2022-08-21T12:53:54;101535.63;;;26.04;87.40
47104;BME280;32853;52.164;5.400;2022-08-21T12:56:32;101542.94;;;26.12;84.09
47104;BME280;32853;52.164;5.400;2022-08-21T12:59:04;101548.56;;;26.28;89.30
47104;BME280;32853;52.164;5.400;2022-08-21T13:01:36;101542.06;;;26.31;89.67
47104;BME280;32853;52.164;5.400;2022-08-21T13:04:09;101505.38;;;26.22;89.51
47104;BME280;32853;52.164;5.400;2022-08-21T13:06:42;101457.94;;;25.95;88.23
47104;BME280;32853;52.164;5.400;2022-08-21T13:09:13;101562.63;;;26.50;87.67
47104;BME280;32853;52.164;5.400;2022-08-21T13:11:41;101504.59;;;25.92;88.66
47104;BME280;32853;52.164;5.400;2022-08-21T13:14:31;101552.63;;;26.32;88.67
47104;BME280;32853;52.164;5.400;2022-08-21T13:16:59;101549.13;;;26.22;85.26
47104;BME280;32853;52.164;5.400;2022-08-21T13:19:25;101561.25;;;26.26;86.98
47104;BME280;32853;52.164;5.400;2022-08-21T13:21:51;101559.56;;;26.25;87.53
47104;BME280;32853;52.164;5.400;2022-08-21T13:26:46;101557.03;;;26.14;84.43
47104;BME280;32853;52.164;5.400;2022-08-21T13:29:15;101530.91;;;26.26;85.38
47104;BME280;32853;52.164;5.400;2022-08-21T13:31:49;101551.66;;;26.24;84.93
47104;BME280;32853;52.164;5.400;2022-08-21T13:34:17;101539.09;;;26.24;79.63
47104;BME280;32853;52.164;5.400;2022-08-21T13:36:46;101554.50;;;26.22;84.14
47104;BME280;32853;52.164;5.400;2022-08-21T13:39:15;101550.28;;;26.20;86.66
47104;BME280;32853;52.164;5.400;2022-08-21T13:41:43;101553.28;;;26.07;89.52
47104;BME280;32853;52.164;5.400;2022-08-21T13:44:19;101539.00;;;26.16;89.17
47104;BME280;32853;52.164;5.400;2022-08-21T13:46:45;101544.31;;;26.26;87.82
47104;BME280;32853;52.164;5.400;2022-08-21T13:49:14;101514.63;;;25.90;89.34
47104;BME280;32853;52.164;5.400;2022-08-21T13:51:40;101541.94;;;26.13;88.12
47104;BME280;32853;52.164;5.400;2022-08-21T13:54:19;101543.69;;;25.95;88.19
47104;BME280;32853;52.164;5.400;2022-08-21T13:56:46;101546.63;;;26.11;87.48
47104;BME280;32853;52.164;5.400;2022-08-21T13:59:24;101470.53;;;25.56;87.74
47104;BME280;32853;52.164;5.400;2022-08-21T14:01:53;101521.28;;;25.96;84.47